Whitby, United Kingdom
Current Conditions -  °F | °C
As of 2:50 PM on Sunday 23 Nov 2014 (Local Time) from EGNV Reporting Station
Few Clouds Few Clouds  
Wind Chill: 44°   Ceiling: Unl
Heat Index: 48°   Visibility: 6mi
Dew Point: 39°   Wind: 9mph
Humidity: 71%   Direction: 290°WNW
Pressure: 30"   Gusts: NA
Location:  54.48°N, 0.64°W
Report Text: EGNV 231450Z 29008KT 9999 FEW020 09/04 Q1016
Loading
Personal Weather Stations






























Interactive Weather Map New forecast layout! Learn more

10-Day Weather Forecast

Advertisements
Track Severe Weather on mobile